Time;durP1;ratioP1;P1;durP2;ratioP2;P2;SDS_P1;SDS_P2;PMS_P1;PMS_P2;Temp;Humidity;BMP_temperature;BMP_pressure;BME280_temperature;BME280_humidity;BME280_pressure;Samples;Min_cycle;Max_cycle;Signal;HPM_P1;HPM_P2
2022/03/18 00:00:33;;;;;;;;;;;;;;;;;;6260674;28;20051;-74
2022/03/18 00:03:35;;;;;;;67.60;38.42;;;;;;;;;;6266984;28;19927;-74
2022/03/18 00:06:37;;;;;;;69.43;39.28;;;;;;;;;;6278926;28;20564;-74
2022/03/18 00:09:41;;;;;;;67.97;40.03;;;;;;;;;;6275795;28;20049;-74
2022/03/18 00:12:43;;;;;;;67.40;38.88;;;;;;;;;;6271781;28;20049;-75
2022/03/18 00:15:45;;;;;;;63.75;38.10;;;;;;;;;;6268931;28;20041;-75
2022/03/18 00:18:47;;;;;;;68.22;40.63;;;;;;;;;;6263383;28;20603;-74
2022/03/18 00:21:52;;;;;;;75.65;42.63;;;;;;;;;;6256768;28;20095;-75
2022/03/18 00:24:53;;;;;;;65.72;39.90;;;;;;;;;;6253567;28;20053;-74
2022/03/18 00:27:55;;;;;;;70.38;40.33;;;;;;;;;;6260941;28;20053;-75
2022/03/18 00:30:57;;;;;;;69.22;40.80;;;;;;;;;;6270845;28;20120;-74
2022/03/18 00:34:01;;;;;;;69.70;42.72;;;;;;;;;;6264501;28;20132;-74
2022/03/18 00:37:03;;;;;;;67.55;41.22;;;;;;;;;;6260164;28;20079;-74
2022/03/18 00:40:06;;;;;;;70.60;39.80;;;;;;;;;;6277996;28;20055;-75
2022/03/18 00:43:08;;;;;;;65.93;40.13;;;;;;;;;;6273986;28;20093;-75
2022/03/18 00:46:09;;;;;;;79.95;41.53;;;;;;;;;;6270671;28;20493;-74
2022/03/18 00:52:31;;;;;;;72.30;41.65;;;;;;;;;;6267428;28;20449;-75
2022/03/18 00:55:33;;;;;;;71.03;42.03;;;;;;;;;;6261066;28;20053;-74
2022/03/18 00:58:34;;;;;;;71.82;41.95;;;;;;;;;;6256615;28;20053;-74
2022/03/18 01:01:36;;;;;;;71.90;42.42;;;;;;;;;;6257608;28;20054;-75
2022/03/18 01:04:39;;;;;;;71.38;41.85;;;;;;;;;;6253360;28;20049;-74
2022/03/18 01:07:41;;;;;;;82.93;44.78;;;;;;;;;;6253388;28;20144;-74
2022/03/18 01:10:42;;;;;;;71.97;41.30;;;;;;;;;;6266719;28;20048;-75
2022/03/18 01:13:44;;;;;;;71.03;41.30;;;;;;;;;;6267301;28;20055;-74
2022/03/18 01:16:45;;;;;;;75.22;41.78;;;;;;;;;;6281567;28;20053;-74
2022/03/18 01:19:48;;;;;;;79.13;44.45;;;;;;;;;;6275477;28;20976;-75
2022/03/18 01:22:50;;;;;;;77.73;43.17;;;;;;;;;;6271333;28;20056;-75
2022/03/18 01:25:54;;;;;;;74.38;43.83;;;;;;;;;;6270518;28;20050;-73
2022/03/18 01:28:56;;;;;;;76.20;41.97;;;;;;;;;;6271032;28;20048;-75
2022/03/18 01:31:58;;;;;;;73.40;41.97;;;;;;;;;;6268848;28;20095;-74
2022/03/18 01:35:01;;;;;;;71.93;42.28;;;;;;;;;;6262664;28;20048;-74
2022/03/18 01:38:02;;;;;;;71.75;42.42;;;;;;;;;;6262635;28;20056;-75
2022/03/18 01:41:04;;;;;;;75.80;42.55;;;;;;;;;;6260277;28;20095;-84
2022/03/18 01:44:10;;;;;;;78.22;42.65;;;;;;;;;;6253966;28;20383;-81
2022/03/18 01:47:12;;;;;;;75.05;44.13;;;;;;;;;;6251828;28;20115;-76
2022/03/18 01:50:16;;;;;;;71.07;42.35;;;;;;;;;;6281247;28;20060;-75
2022/03/18 01:53:17;;;;;;;;;;;;;;;;;;6283902;28;20435;-76
2022/03/18 01:56:19;;;;;;;73.07;42.97;;;;;;;;;;6274092;28;19920;-73
2022/03/18 01:59:21;;;;;;;76.50;44.53;;;;;;;;;;6275047;28;20506;-72
2022/03/18 02:02:22;;;;;;;85.07;45.03;;;;;;;;;;6276451;28;20132;-73
2022/03/18 02:05:25;;;;;;;82.43;46.33;;;;;;;;;;6270491;28;20084;-72
2022/03/18 02:08:28;;;;;;;81.15;47.15;;;;;;;;;;6269132;28;20132;-71
2022/03/18 02:11:30;;;;;;;74.85;46.50;;;;;;;;;;6262745;28;20048;-71
2022/03/18 02:14:35;;;;;;;78.65;45.17;;;;;;;;;;6264211;28;20566;-71
2022/03/18 02:17:38;;;;;;;81.03;48.22;;;;;;;;;;6254963;28;20544;-72
2022/03/18 02:20:42;;;;;;;85.20;48.30;;;;;;;;;;6256081;28;20040;-73
2022/03/18 02:23:45;;;;;;;88.17;49.33;;;;;;;;;;6258892;28;20518;-71
2022/03/18 02:26:47;;;;;;;89.68;48.97;;;;;;;;;;6265382;28;20601;-74
2022/03/18 02:29:49;;;;;;;82.55;48.03;;;;;;;;;;6276773;28;20045;-74
2022/03/18 02:32:51;;;;;;;82.70;47.50;;;;;;;;;;6272439;28;20150;-73
2022/03/18 02:35:53;;;;;;;80.75;47.35;;;;;;;;;;6275200;28;20135;-73
2022/03/18 02:38:56;;;;;;;87.03;48.42;;;;;;;;;;6265951;28;20045;-74
2022/03/18 02:41:58;;;;;;;85.90;49.10;;;;;;;;;;6265477;28;20128;-73
2022/03/18 02:45:01;;;;;;;80.28;47.25;;;;;;;;;;6263564;28;20155;-75
2022/03/18 02:48:02;;;;;;;85.28;47.40;;;;;;;;;;6266571;28;20056;-73
2022/03/18 02:51:04;;;;;;;80.88;46.47;;;;;;;;;;6259574;28;20131;-74
2022/03/18 02:54:07;;;;;;;82.18;47.45;;;;;;;;;;6254475;28;20139;-73
2022/03/18 02:57:09;;;;;;;89.05;50.35;;;;;;;;;;6255482;28;20405;-74
2022/03/18 03:00:12;;;;;;;81.72;46.28;;;;;;;;;;6270045;28;20056;-74
2022/03/18 03:03:13;;;;;;;84.65;48.70;;;;;;;;;;6265568;28;20049;-75
2022/03/18 03:09:36;;;;;;;83.25;48.78;;;;;;;;;;6275762;28;20048;-75
2022/03/18 03:12:37;;;;;;;84.80;48.17;;;;;;;;;;6278863;28;20138;-74
2022/03/18 03:15:40;;;;;;;84.80;48.75;;;;;;;;;;6275690;28;20131;-74
2022/03/18 03:18:41;;;;;;;84.50;48.22;;;;;;;;;;6271452;28;20451;-74
2022/03/18 03:21:43;;;;;;;88.35;49.22;;;;;;;;;;6271402;28;20114;-73
2022/03/18 03:24:47;;;;;;;83.30;48.42;;;;;;;;;;6266772;28;20083;-74
2022/03/18 03:27:52;;;;;;;85.15;49.03;;;;;;;;;;6263509;28;20053;-74
2022/03/18 03:30:53;;;;;;;84.38;49.15;;;;;;;;;;6261876;28;20053;-74
2022/03/18 03:33:55;;;;;;;86.75;50.30;;;;;;;;;;6265216;28;20070;-75
2022/03/18 03:36:56;;;;;;;82.07;48.70;;;;;;;;;;6274779;28;20136;-73
2022/03/18 03:39:59;;;;;;;82.05;48.10;;;;;;;;;;6271247;28;20175;-74
2022/03/18 03:43:01;;;;;;;86.72;51.28;;;;;;;;;;6267829;28;20431;-75
2022/03/18 03:46:03;;;;;;;85.32;50.35;;;;;;;;;;6262383;28;20188;-74
2022/03/18 03:49:04;;;;;;;83.55;47.80;;;;;;;;;;6272894;28;20070;-74
2022/03/18 03:52:08;;;;;;;83.00;47.78;;;;;;;;;;6274703;28;20093;-74
2022/03/18 03:55:13;;;;;;;86.43;50.88;;;;;;;;;;6269709;28;20392;-74
2022/03/18 03:58:15;;;;;;;80.72;48.17;;;;;;;;;;6265892;28;20100;-75
2022/03/18 04:01:16;;;;;;;90.82;49.63;;;;;;;;;;6268873;28;20102;-74
2022/03/18 04:04:18;;;;;;;83.40;47.63;;;;;;;;;;6261834;28;20410;-75
2022/03/18 04:07:19;;;;;;;91.47;49.22;;;;;;;;;;6257560;28;20180;-74
2022/03/18 04:10:22;;;;;;;80.28;46.55;;;;;;;;;;6276663;28;20168;-75
2022/03/18 04:13:24;;;;;;;83.38;47.25;;;;;;;;;;6271692;28;20053;-74
2022/03/18 04:16:25;;;;;;;81.30;46.92;;;;;;;;;;6270913;28;20124;-74
2022/03/18 04:19:27;;;;;;;81.03;46.58;;;;;;;;;;6266735;28;20127;-74
2022/03/18 04:22:29;;;;;;;84.95;47.42;;;;;;;;;;6263508;28;20053;-74
2022/03/18 04:25:31;;;;;;;82.47;46.05;;;;;;;;;;6262616;28;20048;-74
2022/03/18 04:28:33;;;;;;;84.65;45.95;;;;;;;;;;6270365;28;20187;-74
2022/03/18 04:31:35;;;;;;;84.53;47.13;;;;;;;;;;6273668;28;20075;-74
2022/03/18 04:34:36;;;;;;;81.53;46.33;;;;;;;;;;6272877;28;20067;-74
2022/03/18 04:37:39;;;;;;;88.13;45.28;;;;;;;;;;6268305;28;20092;-74
2022/03/18 04:40:42;;;;;;;86.60;45.90;;;;;;;;;;6264103;28;20624;-74
2022/03/18 04:43:44;;;;;;;79.63;43.53;;;;;;;;;;6271097;28;20135;-75
2022/03/18 04:46:48;;;;;;;79.03;43.63;;;;;;;;;;6274246;28;20049;-75
2022/03/18 04:49:49;;;;;;;76.57;42.80;;;;;;;;;;6273976;28;20453;-74
2022/03/18 04:52:51;;;;;;;73.68;39.65;;;;;;;;;;6270667;28;20057;-75
2022/03/18 04:55:54;;;;;;;77.15;41.05;;;;;;;;;;6264171;28;20488;-74
2022/03/18 04:58:55;;;;;;;66.57;37.97;;;;;;;;;;6263337;28;20132;-74
2022/03/18 05:01:57;;;;;;;63.95;37.15;;;;;;;;;;6259811;28;20183;-75
2022/03/18 05:04:58;;;;;;;62.17;36.10;;;;;;;;;;6262171;28;20500;-74
2022/03/18 05:08:00;;;;;;;63.85;34.92;;;;;;;;;;6263976;28;20040;-74
2022/03/18 05:11:03;;;;;;;59.25;34.28;;;;;;;;;;6275316;28;20179;-75
2022/03/18 05:14:05;;;;;;;57.28;33.67;;;;;;;;;;6268219;28;20130;-75
2022/03/18 05:17:09;;;;;;;63.30;33.58;;;;;;;;;;6269113;28;20421;-74
2022/03/18 05:20:12;;;;;;;;;;;;;;;;;;6286490;28;20618;-74
2022/03/18 05:23:14;;;;;;;52.53;30.52;;;;;;;;;;6278980;28;19925;-74
2022/03/18 05:26:17;;;;;;;52.13;30.92;;;;;;;;;;6275615;28;20048;-74
2022/03/18 05:29:18;;;;;;;53.17;29.83;;;;;;;;;;6276535;28;20128;-74
2022/03/18 05:32:20;;;;;;;52.67;29.58;;;;;;;;;;6271711;28;20048;-74
2022/03/18 05:35:22;;;;;;;48.20;26.98;;;;;;;;;;6268506;28;20053;-74
2022/03/18 05:38:23;;;;;;;43.67;26.13;;;;;;;;;;6264519;28;20045;-74
2022/03/18 05:41:26;;;;;;;45.78;26.35;;;;;;;;;;6262393;28;20056;-74
2022/03/18 05:44:28;;;;;;;37.88;23.77;;;;;;;;;;6256784;28;20042;-75
2022/03/18 05:47:30;;;;;;;40.60;23.23;;;;;;;;;;6253243;28;20056;-74
2022/03/18 05:50:31;;;;;;;35.10;21.30;;;;;;;;;;6267587;28;20089;-75
2022/03/18 05:53:33;;;;;;;33.70;20.55;;;;;;;;;;6278027;28;20044;-74
2022/03/18 05:56:55;;;;;;;35.80;20.02;;;;;;;;;;6284215;28;20048;-75
2022/03/18 05:59:58;;;;;;;33.03;19.02;;;;;;;;;;6278661;28;20053;-74
2022/03/18 06:03:00;;;;;;;30.52;18.65;;;;;;;;;;6274376;28;20042;-75
2022/03/18 06:06:01;;;;;;;29.35;18.42;;;;;;;;;;6270694;28;20569;-76
2022/03/18 06:12:23;;;;;;;30.58;17.65;;;;;;;;;;6267139;28;20049;-74
2022/03/18 06:15:24;;;;;;;30.75;17.05;;;;;;;;;;6261283;28;20635;-75
2022/03/18 06:18:26;;;;;;;28.60;15.13;;;;;;;;;;6257956;28;20604;-75
2022/03/18 06:21:28;;;;;;;22.98;15.30;;;;;;;;;;6252641;28;20052;-76
2022/03/18 06:24:30;;;;;;;28.77;15.32;;;;;;;;;;6250941;28;20038;-74
2022/03/18 06:27:33;;;;;;;26.63;16.27;;;;;;;;;;6255157;28;20040;-72
2022/03/18 06:30:35;;;;;;;21.10;14.23;;;;;;;;;;6281940;28;20181;-70
2022/03/18 06:33:41;;;;;;;23.50;15.70;;;;;;;;;;6284739;28;20500;-74
2022/03/18 06:36:43;;;;;;;21.77;14.52;;;;;;;;;;6277507;28;20053;-74
2022/03/18 06:39:45;;;;;;;27.60;16.15;;;;;;;;;;6277033;28;20463;-77
2022/03/18 06:42:48;;;;;;;27.05;15.45;;;;;;;;;;6273100;28;20074;-74
2022/03/18 06:45:49;;;;;;;24.83;15.00;;;;;;;;;;6268649;28;20098;-74
2022/03/18 06:48:51;;;;;;;23.48;15.73;;;;;;;;;;6261471;28;20263;-75
2022/03/18 06:51:52;;;;;;;25.85;15.88;;;;;;;;;;6260601;28;20398;-78
2022/03/18 06:54:54;;;;;;;26.30;15.40;;;;;;;;;;6257217;28;20106;-71
2022/03/18 06:57:57;;;;;;;22.65;15.27;;;;;;;;;;6255049;28;20127;-71
2022/03/18 07:00:58;;;;;;;28.52;15.40;;;;;;;;;;6251498;28;20068;-71
2022/03/18 07:04:00;;;;;;;24.75;15.23;;;;;;;;;;6265749;28;20081;-71
2022/03/18 07:07:01;;;;;;;24.10;15.88;;;;;;;;;;6264937;28;20190;-71
2022/03/18 07:10:03;;;;;;;28.50;16.20;;;;;;;;;;6273992;28;20354;-71
2022/03/18 07:13:06;;;;;;;27.17;16.08;;;;;;;;;;6276390;28;20048;-71
2022/03/18 07:19:28;;;;;;;28.60;16.63;;;;;;;;;;6274250;28;20050;-71
2022/03/18 07:22:30;;;;;;;26.35;16.25;;;;;;;;;;6267444;28;20048;-71
2022/03/18 07:25:31;;;;;;;26.58;16.00;;;;;;;;;;6264538;28;20110;-72
2022/03/18 07:28:34;;;;;;;26.40;15.48;;;;;;;;;;6258699;28;20146;-71
2022/03/18 07:31:36;;;;;;;27.55;15.48;;;;;;;;;;6254545;28;20110;-72
2022/03/18 07:34:37;;;;;;;24.23;15.23;;;;;;;;;;6252154;28;20048;-72
2022/03/18 07:37:39;;;;;;;27.38;14.90;;;;;;;;;;6261867;28;20078;-72
2022/03/18 07:40:41;;;;;;;31.52;16.95;;;;;;;;;;6268671;28;20048;-72
2022/03/18 07:43:43;;;;;;;28.75;16.52;;;;;;;;;;6263506;28;20055;-72
2022/03/18 07:46:45;;;;;;;26.63;16.45;;;;;;;;;;6258538;28;20155;-72
2022/03/18 07:49:47;;;;;;;24.60;15.55;;;;;;;;;;6278684;28;20517;-72
2022/03/18 07:52:50;;;;;;;27.70;16.27;;;;;;;;;;6277047;28;20058;-72
2022/03/18 07:55:51;;;;;;;24.50;15.68;;;;;;;;;;6273304;28;20056;-72
2022/03/18 07:58:54;;;;;;;23.33;16.10;;;;;;;;;;6268581;28;20159;-72
2022/03/18 08:01:56;;;;;;;24.60;15.65;;;;;;;;;;6267361;28;20124;-71
2022/03/18 08:04:57;;;;;;;25.70;16.15;;;;;;;;;;6264347;28;20537;-72
2022/03/18 08:07:59;;;;;;;27.83;16.48;;;;;;;;;;6260356;28;20056;-72
2022/03/18 08:11:01;;;;;;;23.23;15.60;;;;;;;;;;6259746;28;20168;-72
2022/03/18 08:14:04;;;;;;;23.90;15.73;;;;;;;;;;6269380;28;20133;-73
2022/03/18 08:17:05;;;;;;;23.83;15.85;;;;;;;;;;6271224;28;20476;-72
2022/03/18 08:20:09;;;;;;;21.20;14.98;;;;;;;;;;6268765;28;20048;-73
2022/03/18 08:23:12;;;;;;;24.98;15.35;;;;;;;;;;6264118;28;20045;-73
2022/03/18 08:26:13;;;;;;;24.92;16.33;;;;;;;;;;6260367;28;20049;-72
2022/03/18 08:29:16;;;;;;;22.67;15.45;;;;;;;;;;6276128;28;20447;-73
2022/03/18 08:32:18;;;;;;;23.77;15.25;;;;;;;;;;6275250;28;20057;-73
2022/03/18 08:35:19;;;;;;;20.95;14.43;;;;;;;;;;6275222;28;20132;-73
2022/03/18 08:38:21;;;;;;;21.52;14.85;;;;;;;;;;6275327;28;20132;-72
2022/03/18 08:41:23;;;;;;;27.15;15.75;;;;;;;;;;6270360;28;20049;-72
2022/03/18 08:44:26;;;;;;;23.90;16.02;;;;;;;;;;6266323;28;20068;-73
2022/03/18 08:47:28;;;;;;;25.58;14.38;;;;;;;;;;6272609;28;20058;-73
2022/03/18 08:50:29;;;;;;;21.20;14.90;;;;;;;;;;6279667;28;20099;-72
2022/03/18 08:53:31;;;;;;;22.63;15.13;;;;;;;;;;6278179;28;20102;-72
2022/03/18 08:56:33;;;;;;;25.60;15.48;;;;;;;;;;6273689;28;20740;-73
2022/03/18 08:59:36;;;;;;;24.50;15.18;;;;;;;;;;6273919;28;20072;-73
2022/03/18 09:02:39;;;;;;;22.00;14.52;;;;;;;;;;6267193;28;20541;-72
2022/03/18 09:05:41;;;;;;;21.13;14.35;;;;;;;;;;6267558;28;20068;-72
2022/03/18 09:08:44;;;;;;;28.80;14.25;;;;;;;;;;6271963;28;20062;-72
2022/03/18 09:11:45;;;;;;;22.95;14.38;;;;;;;;;;6279422;28;20053;-73
2022/03/18 09:14:48;;;;;;;22.50;14.13;;;;;;;;;;6275466;28;20736;-72
2022/03/18 09:17:50;;;;;;;19.13;13.93;;;;;;;;;;6271414;28;20151;-72
2022/03/18 09:20:52;;;;;;;24.55;13.48;;;;;;;;;;6267604;28;20068;-73
2022/03/18 09:23:54;;;;;;;23.77;14.40;;;;;;;;;;6280302;28;20123;-73
2022/03/18 09:26:55;;;;;;;21.77;13.48;;;;;;;;;;6282758;28;20129;-72
2022/03/18 09:30:00;;;;;;;22.15;14.57;;;;;;;;;;6277331;28;20558;-72
2022/03/18 09:33:02;;;;;;;20.67;14.50;;;;;;;;;;6272019;28;20059;-72
2022/03/18 09:36:04;;;;;;;22.20;13.90;;;;;;;;;;6269722;28;20480;-73
2022/03/18 09:39:05;;;;;;;21.45;14.77;;;;;;;;;;6265166;28;20163;-73
2022/03/18 09:42:08;;;;;;;20.17;14.80;;;;;;;;;;6263618;28;20049;-75
2022/03/18 09:45:12;;;;;;;24.73;16.17;;;;;;;;;;6262630;28;20623;-78
2022/03/18 09:48:14;;;;;;;23.05;14.30;;;;;;;;;;6262933;28;20749;-79
2022/03/18 09:51:15;;;;;;;21.23;14.88;;;;;;;;;;6269989;28;20049;-78
2022/03/18 09:54:17;;;;;;;24.13;15.30;;;;;;;;;;6271929;28;20045;-77
2022/03/18 09:57:19;;;;;;;22.75;14.98;;;;;;;;;;6276777;28;20130;-79
2022/03/18 10:00:22;;;;;;;25.15;15.43;;;;;;;;;;6282037;28;20156;-80
2022/03/18 10:03:23;;;;;;;20.77;14.75;;;;;;;;;;6281428;28;20051;-77
2022/03/18 10:06:28;;;;;;;26.23;15.77;;;;;;;;;;6277489;28;20059;-79
2022/03/18 10:09:30;;;;;;;24.20;16.02;;;;;;;;;;6275009;28;20053;-79
2022/03/18 10:12:33;;;;;;;20.38;14.48;;;;;;;;;;6267582;28;20426;-80
2022/03/18 10:15:36;;;;;;;20.13;14.32;;;;;;;;;;6268150;28;20061;-80
2022/03/18 10:18:48;;;;;;;19.60;14.50;;;;;;;;;;6268205;28;20052;-78
2022/03/18 10:21:53;;;;;;;19.83;14.65;;;;;;;;;;6264962;28;20045;-79
2022/03/18 10:24:55;;;;;;;20.67;14.23;;;;;;;;;;6259155;28;20124;-79
2022/03/18 10:27:56;;;;;;;22.77;14.35;;;;;;;;;;6259574;28;20053;-75
2022/03/18 10:31:10;;;;;;;18.33;13.70;;;;;;;;;;6270308;28;20500;-77
2022/03/18 10:37:42;;;;;;;22.25;14.02;;;;;;;;;;6281880;28;20080;-74
2022/03/18 10:40:45;;;;;;;23.35;14.45;;;;;;;;;;6277822;28;20049;-74
2022/03/18 10:43:50;;;;;;;19.50;13.82;;;;;;;;;;6275531;28;20094;-75
2022/03/18 10:46:57;;;;;;;22.23;13.95;;;;;;;;;;6269447;28;20378;-75
2022/03/18 10:50:14;;;;;;;19.40;13.75;;;;;;;;;;6267807;28;20056;-75
2022/03/18 10:53:18;;;;;;;20.13;14.23;;;;;;;;;;6261136;28;20049;-75
2022/03/18 10:56:20;;;;;;;20.00;14.45;;;;;;;;;;6258720;28;20056;-75
2022/03/18 10:59:22;;;;;;;20.10;14.57;;;;;;;;;;6253723;28;20045;-75
2022/03/18 11:02:25;;;;;;;20.05;14.45;;;;;;;;;;6250948;28;20188;-75
2022/03/18 11:05:30;;;;;;;21.67;15.13;;;;;;;;;;6254037;28;20128;-76
2022/03/18 11:08:35;;;;;;;22.48;15.68;;;;;;;;;;6270449;28;20459;-75
2022/03/18 11:11:39;;;;;;;19.13;14.90;;;;;;;;;;6278436;28;20504;-75
2022/03/18 11:14:40;;;;;;;18.27;14.68;;;;;;;;;;6279406;28;20089;-75
2022/03/18 11:17:44;;;;;;;19.00;14.13;;;;;;;;;;6279120;28;20075;-76
2022/03/18 11:20:45;;;;;;;22.67;14.85;;;;;;;;;;6272739;28;20044;-75
2022/03/18 11:23:47;;;;;;;18.23;14.63;;;;;;;;;;6271268;28;20053;-76
2022/03/18 11:26:50;;;;;;;22.42;14.18;;;;;;;;;;6260540;28;20057;-77
2022/03/18 11:30:22;;;;;;;20.20;14.27;;;;;;;;;;6263524;28;20187;-74
2022/03/18 11:33:25;;;;;;;20.58;14.68;;;;;;;;;;6256863;28;20550;-78
2022/03/18 11:36:26;;;;;;;16.40;12.98;;;;;;;;;;6255504;28;20049;-75
2022/03/18 11:39:28;;;;;;;19.23;13.93;;;;;;;;;;6258348;28;20075;-79
2022/03/18 11:42:29;;;;;;;24.35;14.60;;;;;;;;;;6262028;28;20068;-77
2022/03/18 11:45:34;;;;;;;21.35;14.55;;;;;;;;;;6271623;28;20505;-74
2022/03/18 11:48:38;;;;;;;37.35;25.65;;;;;;;;;;6265855;28;20126;-75
2022/03/18 11:51:40;;;;;;;;;;;;;;;;;;6280474;28;20125;-79
2022/03/18 11:54:50;;;;;;;30.27;15.32;;;;;;;;;;6274371;28;20039;-83
2022/03/18 11:57:52;;;;;;;20.48;13.93;;;;;;;;;;6272772;28;20063;-83
2022/03/18 12:00:54;;;;;;;22.05;14.45;;;;;;;;;;6270162;28;20098;-78
2022/03/18 12:03:57;;;;;;;20.00;14.52;;;;;;;;;;6264593;28;20059;-73
2022/03/18 12:07:09;;;;;;;21.67;15.27;;;;;;;;;;6262849;28;20041;-77
2022/03/18 12:10:11;;;;;;;20.55;15.65;;;;;;;;;;6263836;28;20080;-76
2022/03/18 12:13:13;;;;;;;27.23;15.65;;;;;;;;;;6259005;28;20094;-75
2022/03/18 12:16:19;;;;;;;21.88;15.70;;;;;;;;;;6260049;28;20131;-76
2022/03/18 12:19:22;;;;;;;22.52;15.68;;;;;;;;;;6271168;28;20516;-76
2022/03/18 12:22:24;;;;;;;26.27;17.27;;;;;;;;;;6268612;28;20183;-73
2022/03/18 12:25:26;;;;;;;22.77;15.55;;;;;;;;;;6267479;28;20578;-76
2022/03/18 12:28:28;;;;;;;27.98;16.17;;;;;;;;;;6270435;28;20134;-75
2022/03/18 12:31:29;;;;;;;22.50;15.52;;;;;;;;;;6278824;28;20051;-76
2022/03/18 12:34:34;;;;;;;26.95;16.33;;;;;;;;;;6275146;28;20079;-77
2022/03/18 12:37:35;;;;;;;22.02;16.98;;;;;;;;;;6272292;28;20404;-74
2022/03/18 12:40:40;;;;;;;23.30;16.38;;;;;;;;;;6268684;28;20567;-75
2022/03/18 12:43:44;;;;;;;26.13;16.98;;;;;;;;;;6262467;28;20052;-77
2022/03/18 12:46:47;;;;;;;21.95;16.63;;;;;;;;;;6258924;28;20513;-77
2022/03/18 12:49:51;;;;;;;28.65;17.60;;;;;;;;;;6255652;28;20194;-74
2022/03/18 12:52:53;;;;;;;23.33;16.92;;;;;;;;;;6268061;28;20101;-75
2022/03/18 12:55:56;;;;;;;20.83;15.63;;;;;;;;;;6271195;28;20485;-85
2022/03/18 12:58:58;;;;;;;21.95;17.25;;;;;;;;;;6265688;28;20056;-74
2022/03/18 13:01:59;;;;;;;22.83;15.98;;;;;;;;;;6260926;28;20093;-78
2022/03/18 13:05:05;;;;;;;26.27;17.73;;;;;;;;;;6265274;28;20041;-77
2022/03/18 13:08:08;;;;;;;24.33;15.52;;;;;;;;;;6265720;28;20044;-76
2022/03/18 13:11:09;;;;;;;23.25;16.70;;;;;;;;;;6276369;28;20053;-73
2022/03/18 13:14:12;;;;;;;22.38;15.57;;;;;;;;;;6271901;28;20703;-73
2022/03/18 13:17:22;;;;;;;24.23;16.00;;;;;;;;;;6268117;28;20053;-74
2022/03/18 13:20:27;;;;;;;23.27;16.80;;;;;;;;;;6263896;28;20045;-74
2022/03/18 13:23:28;;;;;;;26.35;15.93;;;;;;;;;;6260682;28;20207;-72
2022/03/18 13:26:30;;;;;;;27.38;16.85;;;;;;;;;;6270877;28;20041;-71
2022/03/18 13:32:56;;;;;;;23.35;15.68;;;;;;;;;;6276633;28;20048;-70
2022/03/18 13:35:59;;;;;;;23.23;17.13;;;;;;;;;;6271382;28;20093;-73
2022/03/18 13:39:06;;;;;;;22.70;16.90;;;;;;;;;;6267626;28;20036;-75
2022/03/18 13:42:08;;;;;;;21.65;16.55;;;;;;;;;;6266549;28;20055;-72
2022/03/18 13:45:23;;;;;;;24.58;17.50;;;;;;;;;;6263968;28;20050;-72
2022/03/18 13:48:26;;;;;;;25.20;17.77;;;;;;;;;;6264704;28;20052;-74
2022/03/18 13:51:34;;;;;;;23.27;17.40;;;;;;;;;;6273038;28;20049;-72
2022/03/18 13:54:42;;;;;;;22.67;16.15;;;;;;;;;;6269448;28;20455;-72
2022/03/18 13:57:45;;;;;;;22.65;16.10;;;;;;;;;;6268350;28;20064;-72
2022/03/18 14:00:46;;;;;;;29.13;15.80;;;;;;;;;;6265851;28;20041;-72
2022/03/18 14:04:00;;;;;;;23.63;15.07;;;;;;;;;;6281896;28;20442;-72
2022/03/18 14:07:03;;;;;;;25.73;14.27;;;;;;;;;;6277319;28;20049;-72
2022/03/18 14:10:07;;;;;;;21.60;14.65;;;;;;;;;;6271305;28;20049;-72
2022/03/18 14:13:10;;;;;;;24.98;14.77;;;;;;;;;;6267906;28;20061;-72
2022/03/18 14:16:14;;;;;;;23.45;13.43;;;;;;;;;;6264753;28;20052;-72
2022/03/18 14:19:16;;;;;;;23.48;14.25;;;;;;;;;;6259546;28;20478;-71
2022/03/18 14:22:30;;;;;;;23.05;14.15;;;;;;;;;;6258177;28;20052;-72
2022/03/18 14:25:32;;;;;;;;;;;;;;;;;;6257446;28;20069;-72
2022/03/18 14:28:35;;;;;;;23.55;13.90;;;;;;;;;;6260842;28;20020;-74
2022/03/18 14:31:36;;;;;;;23.13;13.77;;;;;;;;;;6269193;28;20060;-73
2022/03/18 14:34:38;;;;;;;19.52;14.23;;;;;;;;;;6264627;28;20055;-73
2022/03/18 14:37:41;;;;;;;20.48;13.63;;;;;;;;;;6275807;28;20052;-73
2022/03/18 14:40:42;;;;;;;20.55;13.30;;;;;;;;;;6278052;28;20059;-72
2022/03/18 14:43:44;;;;;;;23.88;13.77;;;;;;;;;;6275772;28;20052;-71
2022/03/18 14:46:46;;;;;;;20.95;12.32;;;;;;;;;;6272639;28;20396;-71
2022/03/18 14:49:47;;;;;;;24.25;12.85;;;;;;;;;;6269782;28;20074;-73
2022/03/18 14:52:51;;;;;;;15.93;11.88;;;;;;;;;;6264813;28;20132;-71
2022/03/18 14:59:11;;;;;;;16.80;11.57;;;;;;;;;;6260282;28;20145;-72
2022/03/18 15:02:14;;;;;;;20.13;12.32;;;;;;;;;;6256133;28;20178;-75
2022/03/18 15:05:15;;;;;;;24.55;12.18;;;;;;;;;;6254870;28;20046;-74
2022/03/18 15:08:19;;;;;;;18.38;11.75;;;;;;;;;;6257009;28;20048;-73
2022/03/18 15:11:20;;;;;;;19.15;12.05;;;;;;;;;;6267832;28;20060;-75
2022/03/18 15:14:22;;;;;;;16.98;12.55;;;;;;;;;;6283858;28;20075;-76
2022/03/18 15:17:24;;;;;;;16.23;12.20;;;;;;;;;;6279680;28;20400;-70
2022/03/18 15:20:25;;;;;;;18.35;11.75;;;;;;;;;;6276561;28;20187;-73
2022/03/18 15:23:31;;;;;;;22.20;10.50;;;;;;;;;;6271534;28;20515;-73
2022/03/18 15:26:37;;;;;;;18.45;10.35;;;;;;;;;;6269053;28;20131;-73
2022/03/18 15:29:39;;;;;;;20.95;9.38;;;;;;;;;;6265599;28;20053;-77
2022/03/18 15:32:40;;;;;;;13.73;8.65;;;;;;;;;;6260789;28;20617;-73
2022/03/18 15:35:42;;;;;;;15.43;8.25;;;;;;;;;;6262133;28;20126;-72
2022/03/18 15:38:45;;;;;;;15.95;9.18;;;;;;;;;;6254935;28;20056;-74
2022/03/18 15:41:48;;;;;;;21.77;8.68;;;;;;;;;;6253190;28;20045;-73
2022/03/18 15:44:50;;;;;;;14.88;8.15;;;;;;;;;;6248243;28;20548;-73
2022/03/18 15:47:51;;;;;;;14.98;8.35;;;;;;;;;;6267001;28;20145;-73
2022/03/18 15:50:53;;;;;;;17.83;8.27;;;;;;;;;;6282539;28;20152;-73
2022/03/18 15:53:56;;;;;;;13.55;8.68;;;;;;;;;;6276352;28;20047;-73
2022/03/18 15:56:58;;;;;;;16.88;8.73;;;;;;;;;;6274700;28;20432;-74
2022/03/18 16:00:00;;;;;;;15.15;8.52;;;;;;;;;;6269291;28;20053;-74
2022/03/18 16:03:02;;;;;;;11.90;8.15;;;;;;;;;;6266496;28;20066;-74
2022/03/18 16:06:03;;;;;;;14.32;8.77;;;;;;;;;;6265703;28;20197;-75
2022/03/18 16:09:06;;;;;;;11.95;8.40;;;;;;;;;;6261590;28;20164;-73
2022/03/18 16:12:09;;;;;;;16.70;8.67;;;;;;;;;;6256600;28;20710;-74
2022/03/18 16:15:12;;;;;;;15.73;8.68;;;;;;;;;;6258328;28;20073;-72
2022/03/18 16:18:13;;;;;;;15.75;8.48;;;;;;;;;;6252528;28;20132;-72
2022/03/18 16:21:15;;;;;;;14.45;8.18;;;;;;;;;;6255604;28;20060;-72
2022/03/18 16:24:18;;;;;;;13.30;9.32;;;;;;;;;;6268244;28;20049;-71
2022/03/18 16:27:20;;;;;;;14.63;8.48;;;;;;;;;;6263436;28;20176;-72
2022/03/18 16:30:22;;;;;;;11.25;8.20;;;;;;;;;;6282554;28;20082;-71
2022/03/18 16:33:24;;;;;;;14.98;8.05;;;;;;;;;;6273011;28;20122;-71
2022/03/18 16:36:26;;;;;;;12.10;8.00;;;;;;;;;;6272352;28;20048;-72
2022/03/18 16:39:29;;;;;;;15.13;8.90;;;;;;;;;;6268268;28;20567;-73
2022/03/18 16:42:30;;;;;;;14.65;9.18;;;;;;;;;;6267527;28;20082;-72
2022/03/18 16:49:23;;;;;;;13.30;9.52;;;;;;;;;;6264769;28;20353;-70
2022/03/18 16:52:27;;;;;;;18.95;10.40;;;;;;;;;;6177994;28;20406;-72
2022/03/18 16:55:30;;;;;;;14.32;9.18;;;;;;;;;;6175252;28;20217;-72
2022/03/18 16:58:32;;;;;;;16.83;9.97;;;;;;;;;;6267781;28;20110;-72
2022/03/18 17:01:50;;;;;;;13.50;9.38;;;;;;;;;;6262432;28;20095;-72
2022/03/18 17:04:51;;;;;;;20.70;9.68;;;;;;;;;;6258570;28;20183;-72
2022/03/18 17:07:53;;;;;;;15.05;9.13;;;;;;;;;;6261155;28;20331;-72
2022/03/18 17:10:56;;;;;;;13.27;9.48;;;;;;;;;;6266355;28;20056;-72
2022/03/18 17:13:58;;;;;;;17.27;8.10;;;;;;;;;;6268469;28;20097;-72
2022/03/18 17:16:59;;;;;;;14.35;8.60;;;;;;;;;;6269718;28;20045;-72
2022/03/18 17:20:01;;;;;;;15.98;8.88;;;;;;;;;;6263330;28;20053;-73
2022/03/18 17:23:02;;;;;;;18.83;8.75;;;;;;;;;;6265358;28;20577;-73
2022/03/18 17:26:05;;;;;;;12.77;9.05;;;;;;;;;;6265006;28;20045;-73
2022/03/18 17:29:07;;;;;;;18.55;9.00;;;;;;;;;;6257699;28;20087;-72
2022/03/18 17:32:08;;;;;;;16.33;8.82;;;;;;;;;;6268141;28;20093;-71
2022/03/18 17:35:10;;;;;;;13.73;9.25;;;;;;;;;;6274947;28;20412;-72
2022/03/18 17:38:12;;;;;;;13.93;9.23;;;;;;;;;;6269615;28;20492;-72
2022/03/18 17:41:14;;;;;;;16.48;8.98;;;;;;;;;;6267135;28;20116;-72
2022/03/18 17:44:17;;;;;;;15.65;9.32;;;;;;;;;;6260124;28;20705;-72
2022/03/18 17:47:18;;;;;;;17.38;9.20;;;;;;;;;;6263195;28;20045;-72
2022/03/18 17:50:20;;;;;;;15.75;9.88;;;;;;;;;;6271244;28;20174;-73
2022/03/18 17:53:21;;;;;;;21.40;9.55;;;;;;;;;;6262034;28;20045;-71
2022/03/18 17:56:24;;;;;;;16.75;10.05;;;;;;;;;;6276853;28;20074;-70
2022/03/18 17:59:25;;;;;;;14.85;9.20;;;;;;;;;;6267656;28;20093;-70
2022/03/18 18:02:27;;;;;;;15.75;9.38;;;;;;;;;;6268208;28;20105;-72
2022/03/18 18:05:29;;;;;;;18.40;9.30;;;;;;;;;;6264232;28;20055;-70
2022/03/18 18:08:30;;;;;;;20.23;9.35;;;;;;;;;;6278565;28;20057;-68
2022/03/18 18:11:34;;;;;;;16.38;8.88;;;;;;;;;;6273169;28;20060;-71
2022/03/18 18:14:36;;;;;;;13.88;8.73;;;;;;;;;;6273389;28;20083;-70